createdAt,value
2017-08-08T00:01:35.580Z,17.40
2017-08-08T00:04:03.961Z,17.47
2017-08-08T00:06:32.274Z,19.27
2017-08-08T00:08:59.824Z,16.93
2017-08-08T00:11:27.445Z,17.27
2017-08-08T00:13:54.990Z,17.37
2017-08-08T00:16:22.532Z,18.80
2017-08-08T00:18:50.096Z,17.17
2017-08-08T00:21:17.665Z,16.97
2017-08-08T00:23:45.201Z,17.60
2017-08-08T00:26:12.823Z,17.17
2017-08-08T00:28:40.365Z,17.67
2017-08-08T00:31:07.901Z,18.20
2017-08-08T00:33:35.483Z,17.80
2017-08-08T00:36:03.030Z,19.03
2017-08-08T00:38:30.573Z,17.80
2017-08-08T00:40:58.140Z,17.30
2017-08-08T00:43:25.681Z,17.37
2017-08-08T00:45:53.225Z,18.07
2017-08-08T00:48:20.834Z,17.00
2017-08-08T00:50:48.377Z,18.27
2017-08-08T00:53:15.917Z,18.53
2017-08-08T00:55:43.484Z,17.83
2017-08-08T00:58:11.036Z,18.90
2017-08-08T01:00:39.090Z,16.67
2017-08-08T01:03:06.669Z,20.50
2017-08-08T01:05:34.209Z,20.40
2017-08-08T01:08:01.774Z,20.67
2017-08-08T01:10:29.381Z,19.33
2017-08-08T01:12:56.925Z,17.80
2017-08-08T01:15:24.470Z,19.10
2017-08-08T01:17:52.084Z,19.93
2017-08-08T01:20:20.382Z,19.30
2017-08-08T01:22:47.929Z,18.70
2017-08-08T01:25:15.497Z,17.47
2017-08-08T01:27:43.045Z,19.97
2017-08-08T01:30:11.353Z,20.80
2017-08-08T01:32:38.985Z,18.47
2017-08-08T01:35:06.529Z,19.43
2017-08-08T01:37:34.073Z,18.20
2017-08-08T01:40:01.645Z,18.80
2017-08-08T01:42:29.185Z,19.23
2017-08-08T01:44:56.728Z,18.10
2017-08-08T01:47:24.305Z,17.70
2017-08-08T01:49:51.853Z,19.50
2017-08-08T01:52:19.510Z,18.57
2017-08-08T01:54:47.124Z,19.23
2017-08-08T01:57:14.669Z,20.57
2017-08-08T01:59:42.213Z,20.10
2017-08-08T02:02:10.469Z,19.57
2017-08-08T02:04:38.009Z,19.40
2017-08-08T02:07:05.549Z,21.97
2017-08-08T02:09:33.117Z,20.23
2017-08-08T02:12:00.660Z,22.27
2017-08-08T02:14:28.974Z,22.20
2017-08-08T02:16:56.580Z,22.17
2017-08-08T02:19:24.121Z,21.77
2017-08-08T02:21:51.669Z,23.50
2017-08-08T02:24:19.288Z,21.40
2017-08-08T02:26:46.834Z,21.60
2017-08-08T02:29:14.380Z,22.63
2017-08-08T02:31:41.953Z,23.23
2017-08-08T02:34:09.498Z,22.50
2017-08-08T02:36:37.041Z,21.90
2017-08-08T02:39:04.644Z,22.43
2017-08-08T02:41:32.185Z,20.80
2017-08-08T02:43:59.731Z,22.80
2017-08-08T02:46:27.300Z,22.93
2017-08-08T02:48:54.867Z,24.90
2017-08-08T02:51:22.415Z,21.80
2017-08-08T02:53:49.984Z,22.00
2017-08-08T02:56:17.549Z,24.10
2017-08-08T02:58:45.092Z,24.33
2017-08-08T03:01:13.152Z,23.33
2017-08-08T03:03:41.476Z,24.87
2017-08-08T03:06:09.020Z,24.87
2017-08-08T03:08:37.362Z,21.07
2017-08-08T03:11:04.900Z,25.10
2017-08-08T03:13:32.454Z,24.37
2017-08-08T03:16:00.045Z,24.73
2017-08-08T03:18:27.593Z,24.03
2017-08-08T03:20:55.136Z,22.60
2017-08-08T03:23:22.745Z,22.53
2017-08-08T03:25:50.290Z,23.00
2017-08-08T03:28:17.833Z,25.07
2017-08-08T03:30:45.445Z,24.70
2017-08-08T03:33:13.763Z,24.80
2017-08-08T03:35:41.312Z,24.43
2017-08-08T03:38:08.883Z,25.60
2017-08-08T03:40:36.424Z,26.90
2017-08-08T03:43:03.966Z,26.43
2017-08-08T03:45:32.345Z,24.20
2017-08-08T03:48:00.657Z,21.50
2017-08-08T03:50:28.209Z,22.10
2017-08-08T03:52:55.791Z,21.80
2017-08-08T03:55:23.339Z,21.03
2017-08-08T03:57:50.880Z,21.37
2017-08-08T04:00:18.460Z,21.30
2017-08-08T04:02:46.005Z,21.90
2017-08-08T04:05:13.552Z,20.90
2017-08-08T04:07:41.157Z,21.83
2017-08-08T04:10:08.699Z,24.80
2017-08-08T04:12:36.249Z,25.83
2017-08-08T04:15:03.818Z,25.90
2017-08-08T04:17:31.365Z,24.77
2017-08-08T04:19:58.909Z,27.80
2017-08-08T04:22:26.477Z,25.80
2017-08-08T04:24:54.025Z,27.27
2017-08-08T04:27:21.573Z,26.80
2017-08-08T04:29:50.050Z,28.40
2017-08-08T04:32:17.592Z,28.70
2017-08-08T04:34:45.133Z,27.47
2017-08-08T04:37:12.758Z,27.20
2017-08-08T04:39:40.301Z,28.87
2017-08-08T04:42:07.852Z,25.90
2017-08-08T04:44:36.192Z,27.47
2017-08-08T04:47:03.737Z,27.30
2017-08-08T04:49:31.289Z,27.43
2017-08-08T04:51:58.909Z,30.57
2017-08-08T04:54:26.454Z,29.30
2017-08-08T04:56:53.996Z,28.77
2017-08-08T04:59:21.564Z,28.97
2017-08-08T05:01:49.105Z,28.97
2017-08-08T05:04:16.657Z,27.37
2017-08-08T05:06:44.833Z,28.03
2017-08-08T05:09:12.391Z,27.50
2017-08-08T05:11:39.933Z,28.37
2017-08-08T05:14:07.540Z,27.40
2017-08-08T05:16:35.081Z,26.13
2017-08-08T05:19:02.631Z,29.30
2017-08-08T05:21:30.249Z,28.10
2017-08-08T05:23:57.844Z,25.80
2017-08-08T05:26:25.405Z,27.10
2017-08-08T05:28:52.974Z,25.00
2017-08-08T05:31:20.520Z,26.83
2017-08-08T05:33:48.060Z,23.97
2017-08-08T05:36:15.669Z,24.93
2017-08-08T05:38:43.225Z,25.60
2017-08-08T05:41:10.770Z,24.10
2017-08-08T05:43:38.468Z,22.10
2017-08-08T05:46:06.017Z,24.00
2017-08-08T05:48:33.561Z,21.70
2017-08-08T05:51:01.133Z,22.50
2017-08-08T05:53:28.685Z,22.10
2017-08-08T05:55:56.238Z,21.27
2017-08-08T05:58:23.821Z,21.43
2017-08-08T06:00:51.392Z,22.63
2017-08-08T06:03:18.938Z,20.07
2017-08-08T06:05:46.500Z,21.23
2017-08-08T06:08:14.381Z,20.27
2017-08-08T06:10:41.929Z,19.30
2017-08-08T06:13:09.867Z,19.77
2017-08-08T06:15:37.431Z,17.90
2017-08-08T06:18:04.969Z,14.80
2017-08-08T06:20:32.540Z,13.70
2017-08-08T06:23:00.080Z,12.60
2017-08-08T06:25:28.393Z,11.57
2017-08-08T06:27:55.966Z,10.60
2017-08-08T06:30:23.512Z,9.77
2017-08-08T06:32:51.066Z,10.37
2017-08-08T06:35:18.682Z,9.00
2017-08-08T06:37:46.217Z,8.13
2017-08-08T06:40:13.766Z,8.50
2017-08-08T06:42:41.345Z,8.23
2017-08-08T06:45:08.907Z,7.13
2017-08-08T06:47:36.446Z,7.40
2017-08-08T06:50:04.013Z,7.27
2017-08-08T06:52:31.547Z,6.87
2017-08-08T06:55:00.254Z,7.40
2017-08-08T06:57:27.872Z,6.93
2017-08-08T06:59:55.438Z,7.27
2017-08-08T07:02:23.015Z,7.53
2017-08-08T07:04:50.625Z,6.40
2017-08-08T07:07:18.182Z,5.93
2017-08-08T07:09:46.308Z,6.83
2017-08-08T07:12:13.899Z,5.60
2017-08-08T07:14:41.449Z,5.70
2017-08-08T07:17:09.005Z,5.57
2017-08-08T07:19:36.634Z,5.17
2017-08-08T07:22:04.280Z,5.10
2017-08-08T07:24:32.591Z,5.60
2017-08-08T07:27:00.165Z,4.50
2017-08-08T07:29:27.716Z,5.10
2017-08-08T07:31:55.274Z,4.30
2017-08-08T07:34:23.642Z,4.20
2017-08-08T07:36:51.228Z,4.57
2017-08-08T07:39:18.788Z,4.30
2017-08-08T07:41:46.466Z,4.57
2017-08-08T07:44:14.024Z,4.07
2017-08-08T07:46:41.573Z,4.10
2017-08-08T07:49:09.222Z,4.23
2017-08-08T07:51:36.785Z,3.60
2017-08-08T07:54:04.358Z,3.83
2017-08-08T07:56:31.945Z,3.60
2017-08-08T07:58:59.502Z,4.60
2017-08-08T08:01:27.067Z,3.90
2017-08-08T08:03:54.685Z,3.40
2017-08-08T08:06:22.248Z,3.43
2017-08-08T08:08:49.805Z,3.63
2017-08-08T08:11:17.689Z,3.20
2017-08-08T08:13:45.251Z,3.37
2017-08-08T08:16:12.851Z,3.53
2017-08-08T08:18:40.428Z,3.40
2017-08-08T08:21:08.056Z,2.93
2017-08-08T08:23:35.646Z,2.73
2017-08-08T08:26:03.277Z,3.13
2017-08-08T08:28:30.845Z,2.77
2017-08-08T08:30:59.174Z,3.10
2017-08-08T08:33:26.786Z,3.00
2017-08-08T08:35:54.335Z,3.43
2017-08-08T08:38:21.893Z,3.10
2017-08-08T08:40:49.485Z,2.90
2017-08-08T08:43:17.042Z,3.60
2017-08-08T08:45:44.600Z,2.90
2017-08-08T08:48:12.213Z,3.00
2017-08-08T08:50:40.034Z,3.00
2017-08-08T08:53:07.587Z,2.57
2017-08-08T08:55:36.262Z,2.27
2017-08-08T08:58:04.585Z,2.83
2017-08-08T09:00:32.144Z,2.53
2017-08-08T09:02:59.725Z,2.40
2017-08-08T09:05:29.393Z,2.50
2017-08-08T09:07:56.950Z,2.57
2017-08-08T09:10:24.577Z,2.43
2017-08-08T09:12:52.454Z,2.43
2017-08-08T09:15:20.775Z,2.43
2017-08-08T09:17:48.365Z,2.20
2017-08-08T09:20:15.945Z,2.10
2017-08-08T09:22:43.981Z,2.03
2017-08-08T09:25:11.577Z,2.27
2017-08-08T09:27:39.117Z,1.97
2017-08-08T09:30:06.672Z,1.90
2017-08-08T09:32:34.277Z,2.50
2017-08-08T09:35:02.593Z,2.40
2017-08-08T09:37:30.210Z,2.20
2017-08-08T09:39:57.804Z,2.50
2017-08-08T09:42:25.362Z,2.90
2017-08-08T09:44:52.906Z,2.63
2017-08-08T09:47:21.662Z,2.57
2017-08-08T09:49:50.110Z,2.30
2017-08-08T09:52:17.686Z,2.20
2017-08-08T09:54:45.320Z,2.50
2017-08-08T09:57:12.897Z,2.40
2017-08-08T09:59:40.454Z,2.50
2017-08-08T10:02:08.089Z,2.60
2017-08-08T10:04:35.643Z,2.90
2017-08-08T10:07:03.191Z,2.90
2017-08-08T10:09:30.778Z,3.70
2017-08-08T10:11:58.332Z,3.00
2017-08-08T10:14:26.501Z,2.87
2017-08-08T10:16:54.130Z,3.47
2017-08-08T10:19:21.677Z,3.67
2017-08-08T10:21:49.225Z,3.23
2017-08-08T10:24:16.805Z,3.90
2017-08-08T10:26:44.363Z,3.63
2017-08-08T10:29:11.923Z,3.60
2017-08-08T10:31:39.500Z,3.50
2017-08-08T10:34:07.065Z,4.10
2017-08-08T10:36:34.652Z,4.10
2017-08-08T10:39:02.301Z,4.30
2017-08-08T10:41:29.857Z,4.40
2017-08-08T10:43:57.405Z,4.47
2017-08-08T10:46:25.002Z,4.83
2017-08-08T10:48:52.554Z,4.70
2017-08-08T10:51:20.138Z,4.53
2017-08-08T10:53:47.724Z,4.37
2017-08-08T10:56:15.306Z,4.83
2017-08-08T10:58:42.890Z,4.03
2017-08-08T11:01:10.517Z,4.67
2017-08-08T11:03:38.077Z,4.67
2017-08-08T11:06:05.794Z,4.20
2017-08-08T11:08:33.418Z,4.60
2017-08-08T11:11:00.977Z,4.77
2017-08-08T11:13:28.559Z,5.12
2017-08-08T11:15:56.645Z,5.50
2017-08-08T11:18:24.210Z,4.53
2017-08-08T11:20:51.789Z,4.83
2017-08-08T11:23:19.429Z,4.20
2017-08-08T11:25:46.990Z,4.00
2017-08-08T11:28:14.535Z,4.33
2017-08-08T11:30:42.154Z,4.17
2017-08-08T11:33:09.716Z,4.23
2017-08-08T11:35:37.272Z,4.30
2017-08-08T11:38:05.766Z,4.20
2017-08-08T11:40:34.629Z,4.33
2017-08-08T11:43:02.182Z,4.87
2017-08-08T11:45:31.971Z,4.50
2017-08-08T11:47:59.517Z,4.43
2017-08-08T11:50:33.657Z,4.50
2017-08-08T11:53:04.054Z,4.87
2017-08-08T11:55:33.360Z,4.00
2017-08-08T11:58:00.979Z,4.50
2017-08-08T12:00:30.542Z,4.20
2017-08-08T12:02:58.121Z,4.60
2017-08-08T12:05:30.329Z,5.03
2017-08-08T12:07:57.901Z,5.40
2017-08-08T12:10:25.490Z,4.77
2017-08-08T12:12:56.205Z,4.87
2017-08-08T12:15:23.792Z,4.00
2017-08-08T12:17:51.800Z,4.40
2017-08-08T12:20:19.400Z,3.97
2017-08-08T12:22:46.961Z,4.23
2017-08-08T12:25:14.518Z,4.37
2017-08-08T12:27:42.145Z,4.00
2017-08-08T12:30:11.340Z,4.40
2017-08-08T12:32:38.897Z,3.90
2017-08-08T12:35:06.512Z,4.10
2017-08-08T12:37:34.061Z,3.90
2017-08-08T12:40:01.639Z,3.70
2017-08-08T12:42:29.241Z,3.50
2017-08-08T12:45:05.224Z,3.57
2017-08-08T12:47:32.846Z,4.33
2017-08-08T12:50:00.486Z,4.77
2017-08-08T12:52:28.066Z,4.20
2017-08-08T12:54:55.681Z,4.00
2017-08-08T12:57:23.241Z,4.20
2017-08-08T12:59:50.805Z,4.33
2017-08-08T13:02:18.396Z,4.60
2017-08-08T13:04:45.969Z,4.70
2017-08-08T13:07:13.537Z,4.73
2017-08-08T13:09:41.127Z,4.20
2017-08-08T13:12:08.691Z,4.10
2017-08-08T13:14:36.233Z,5.83
2017-08-08T13:17:03.842Z,6.03
2017-08-08T13:19:31.876Z,6.20
2017-08-08T13:21:59.433Z,5.83
2017-08-08T13:24:27.809Z,6.20
2017-08-08T13:26:56.126Z,6.60
2017-08-08T13:29:23.665Z,7.87
2017-08-08T13:31:51.237Z,7.63
2017-08-08T13:34:18.781Z,8.70
2017-08-08T13:36:46.319Z,7.23
2017-08-08T13:39:14.653Z,9.53
2017-08-08T13:41:42.198Z,8.77
2017-08-08T13:44:09.737Z,9.03
2017-08-08T13:46:37.346Z,9.80
2017-08-08T13:49:04.890Z,8.73
2017-08-08T13:51:32.458Z,8.87
2017-08-08T13:54:00.025Z,9.37
2017-08-08T13:56:27.574Z,8.23
2017-08-08T13:58:55.119Z,8.27
2017-08-08T14:01:22.717Z,7.07
2017-08-08T14:03:50.314Z,6.83
2017-08-08T14:06:17.921Z,6.10
2017-08-08T14:08:45.574Z,5.87
2017-08-08T14:11:13.136Z,6.43
2017-08-08T14:13:40.676Z,6.00
2017-08-08T14:16:08.729Z,5.90
2017-08-08T14:18:36.276Z,5.83
2017-08-08T14:21:04.116Z,6.17
2017-08-08T14:23:31.763Z,6.80
2017-08-08T14:25:59.306Z,6.57
2017-08-08T14:28:26.850Z,6.00
2017-08-08T14:30:54.469Z,5.80
2017-08-08T14:33:22.048Z,6.30
2017-08-08T14:35:49.590Z,6.53
2017-08-08T14:38:17.190Z,6.60
2017-08-08T14:40:44.787Z,6.27
2017-08-08T14:43:12.342Z,5.40
2017-08-08T14:45:39.905Z,5.53
2017-08-08T14:48:07.437Z,6.30
2017-08-08T14:50:35.622Z,6.80
2017-08-08T14:53:03.241Z,7.40
2017-08-08T14:55:30.794Z,6.83
2017-08-08T14:57:59.101Z,7.47
2017-08-08T15:00:26.783Z,10.47
2017-08-08T15:02:54.378Z,10.80
2017-08-08T15:05:22.706Z,9.43
2017-08-08T15:07:50.289Z,7.10
2017-08-08T15:10:17.825Z,7.50
2017-08-08T15:12:45.365Z,7.07
2017-08-08T15:15:24.219Z,8.37
2017-08-08T15:25:48.205Z,8.60
2017-08-08T15:28:16.518Z,9.60
2017-08-08T15:30:44.073Z,8.47
2017-08-08T15:33:11.681Z,8.20
2017-08-08T15:35:39.230Z,9.50
2017-08-08T15:38:06.774Z,9.13
2017-08-08T15:40:34.340Z,8.83
2017-08-08T15:43:01.883Z,9.00
2017-08-08T15:45:29.429Z,9.80
2017-08-08T15:47:57.010Z,9.80
2017-08-08T15:50:24.569Z,8.30
2017-08-08T15:52:52.110Z,8.20
2017-08-08T15:55:19.726Z,7.70
2017-08-08T15:57:47.268Z,8.00
2017-08-08T16:00:14.806Z,8.13
2017-08-08T16:02:42.388Z,6.10
2017-08-08T16:05:09.933Z,6.40
2017-08-08T16:07:37.481Z,6.40
2017-08-08T16:10:05.082Z,5.00
2017-08-08T16:12:32.612Z,4.60
2017-08-08T16:15:00.149Z,3.67
2017-08-08T16:17:28.092Z,2.83
2017-08-08T16:19:55.625Z,3.10
2017-08-08T16:22:23.165Z,2.67
2017-08-08T16:24:50.738Z,2.80
2017-08-08T16:27:18.865Z,2.70
2017-08-08T16:29:46.409Z,2.80
2017-08-08T16:32:14.792Z,2.70
2017-08-08T16:34:43.096Z,2.30
2017-08-08T16:37:10.637Z,2.60
2017-08-08T16:39:38.237Z,2.30
2017-08-08T16:42:05.769Z,3.40
2017-08-08T16:44:33.304Z,3.17
2017-08-08T16:47:01.657Z,3.20
2017-08-08T16:49:29.269Z,3.40
2017-08-08T16:51:56.813Z,3.60
2017-08-08T16:54:24.378Z,3.53
2017-08-08T16:56:51.989Z,4.23
2017-08-08T16:59:19.529Z,4.00
2017-08-08T17:01:47.129Z,4.10
2017-08-08T17:04:14.669Z,4.10
2017-08-08T17:06:42.206Z,3.70
2017-08-08T17:09:09.793Z,3.80
2017-08-08T17:11:37.585Z,4.30
2017-08-08T17:14:05.138Z,5.03
2017-08-08T17:16:32.747Z,4.80
2017-08-08T17:19:00.381Z,5.20
2017-08-08T17:21:27.979Z,5.40
2017-08-08T17:23:55.642Z,5.17
2017-08-08T17:26:23.206Z,5.40
2017-08-08T17:28:51.057Z,5.70
2017-08-08T17:31:18.628Z,5.43
2017-08-08T17:33:46.192Z,5.50
2017-08-08T17:36:13.753Z,5.73
2017-08-08T17:38:41.523Z,5.60
2017-08-08T17:41:09.068Z,6.07
2017-08-08T17:43:36.626Z,6.63
2017-08-08T17:46:04.228Z,5.43
2017-08-08T17:48:31.768Z,6.00
2017-08-08T17:51:00.188Z,6.80
2017-08-08T17:53:28.525Z,5.60
2017-08-08T17:55:56.078Z,5.97
2017-08-08T17:58:24.739Z,6.37
2017-08-08T18:00:55.829Z,6.50
2017-08-08T18:03:23.456Z,5.53
2017-08-08T18:05:52.357Z,5.10
2017-08-08T18:08:23.019Z,6.70
2017-08-08T18:11:03.275Z,6.30
2017-08-08T18:13:30.857Z,5.80
2017-08-08T18:15:58.401Z,6.20
2017-08-08T18:18:25.970Z,6.30
2017-08-08T18:20:53.684Z,5.70
2017-08-08T18:23:21.236Z,6.00
2017-08-08T18:25:48.781Z,5.50
2017-08-08T18:28:17.225Z,5.80
2017-08-08T18:30:44.952Z,5.50
2017-08-08T18:33:12.490Z,5.37
2017-08-08T18:35:40.060Z,6.60
2017-08-08T18:38:07.596Z,5.77
2017-08-08T18:40:37.012Z,6.30
2017-08-08T18:43:04.660Z,7.20
2017-08-08T18:45:32.202Z,7.13
2017-08-08T18:48:00.511Z,6.80
2017-08-08T18:50:28.117Z,7.60
2017-08-08T18:52:55.657Z,7.20
2017-08-08T18:55:23.284Z,6.90
2017-08-08T18:57:51.184Z,6.00
2017-08-08T19:00:18.883Z,7.10
2017-08-08T19:02:46.443Z,6.80
2017-08-08T19:05:14.046Z,6.10
2017-08-08T19:07:41.663Z,7.00
2017-08-08T19:10:09.224Z,6.63
2017-08-08T19:12:36.862Z,7.43
2017-08-08T19:15:04.457Z,6.13
2017-08-08T19:17:35.840Z,6.80
2017-08-08T19:20:03.488Z,7.00
2017-08-08T19:22:31.102Z,6.90
2017-08-08T19:25:01.098Z,7.53
2017-08-08T19:27:28.681Z,6.57
2017-08-08T19:29:56.242Z,7.03
2017-08-08T19:32:24.241Z,6.50
2017-08-08T19:34:51.850Z,7.50
2017-08-08T19:37:19.416Z,9.47
2017-08-08T19:39:48.466Z,9.03
2017-08-08T19:42:16.056Z,6.00
2017-08-08T19:44:43.607Z,7.03
2017-08-08T19:47:11.166Z,6.70
2017-08-08T19:49:38.961Z,6.47
2017-08-08T19:52:06.507Z,8.30
2017-08-08T19:54:34.065Z,8.03
2017-08-08T19:57:01.677Z,6.60
2017-08-08T19:59:29.988Z,7.60
2017-08-08T20:01:57.526Z,6.27
2017-08-08T20:04:25.861Z,6.50
2017-08-08T20:06:53.398Z,6.97
2017-08-08T20:09:20.937Z,6.17
2017-08-08T20:11:48.909Z,7.07
2017-08-08T20:14:16.450Z,5.30
2017-08-08T20:16:43.985Z,6.00
2017-08-08T20:19:11.554Z,5.73
2017-08-08T20:21:39.874Z,6.17
2017-08-08T20:24:07.412Z,6.57
2017-08-08T20:26:35.778Z,6.63
2017-08-08T20:29:04.093Z,7.03
2017-08-08T20:31:31.629Z,6.37
2017-08-08T20:34:00.288Z,6.03
2017-08-08T20:36:27.830Z,6.20
2017-08-08T20:38:55.374Z,5.00
2017-08-08T20:41:22.940Z,5.47
2017-08-08T20:43:50.472Z,5.83
2017-08-08T20:46:18.012Z,6.87
2017-08-08T20:48:45.599Z,5.30
2017-08-08T20:51:13.152Z,5.00
2017-08-08T20:53:40.693Z,4.40
2017-08-08T20:56:08.389Z,4.50
2017-08-08T20:58:35.934Z,4.50
2017-08-08T21:01:03.464Z,3.40
2017-08-08T21:03:31.024Z,3.30
2017-08-08T21:05:59.448Z,3.70
2017-08-08T21:08:27.007Z,4.10
2017-08-08T21:10:54.915Z,3.53
2017-08-08T21:13:23.032Z,3.43
2017-08-08T21:15:50.587Z,3.20
2017-08-08T21:18:18.157Z,3.50
2017-08-08T21:20:45.692Z,2.53
2017-08-08T21:23:13.998Z,2.60
2017-08-08T21:25:41.561Z,2.50
2017-08-08T21:28:09.097Z,2.40
2017-08-08T21:30:36.637Z,2.70
2017-08-08T21:33:04.245Z,2.23
2017-08-08T21:35:32.181Z,2.20
2017-08-08T21:37:59.727Z,2.50
2017-08-08T21:40:28.069Z,2.80
2017-08-08T21:42:55.611Z,2.60
2017-08-08T21:45:23.145Z,2.27
2017-08-08T21:47:50.713Z,2.70
2017-08-08T21:50:18.249Z,2.60
2017-08-08T21:52:46.552Z,2.50
2017-08-08T21:55:14.170Z,2.47
2017-08-08T21:57:41.709Z,2.03
2017-08-08T22:00:09.248Z,2.80
2017-08-08T22:02:36.862Z,2.63
2017-08-08T22:05:04.409Z,2.43
2017-08-08T22:07:31.944Z,2.07
2017-08-08T22:09:59.513Z,2.10
2017-08-08T22:12:27.074Z,2.33
2017-08-08T22:14:54.613Z,2.57
2017-08-08T22:17:22.221Z,2.33
2017-08-08T22:19:49.765Z,2.43
2017-08-08T22:22:17.302Z,2.50
2017-08-08T22:24:44.877Z,2.43
2017-08-08T22:27:12.727Z,2.70
2017-08-08T22:29:40.264Z,2.47
2017-08-08T22:32:07.829Z,3.13
2017-08-08T22:34:35.376Z,2.70
2017-08-08T22:37:02.961Z,2.80
2017-08-08T22:39:30.573Z,2.90
2017-08-08T22:41:58.109Z,2.57
2017-08-08T22:44:25.653Z,2.97
2017-08-08T22:46:53.220Z,2.90
2017-08-08T22:49:20.754Z,3.63
2017-08-08T22:51:48.293Z,2.97
2017-08-08T22:54:15.862Z,2.73
2017-08-08T22:56:43.405Z,3.60
2017-08-08T22:59:10.968Z,3.03
2017-08-08T23:01:38.576Z,3.37
2017-08-08T23:04:06.117Z,2.80
2017-08-08T23:06:33.657Z,3.50
2017-08-08T23:09:01.264Z,2.70
2017-08-08T23:11:28.824Z,3.10
2017-08-08T23:13:56.356Z,3.20
2017-08-08T23:16:23.933Z,3.57
2017-08-08T23:18:51.505Z,3.50
2017-08-08T23:21:19.807Z,3.40
2017-08-08T23:23:47.409Z,3.13
2017-08-08T23:26:14.945Z,2.80
2017-08-08T23:28:42.484Z,3.13
2017-08-08T23:31:10.065Z,3.20
2017-08-08T23:33:37.601Z,3.00
2017-08-08T23:36:05.909Z,2.73
2017-08-08T23:38:34.309Z,3.10
2017-08-08T23:41:01.848Z,3.00
2017-08-08T23:43:29.399Z,2.70
2017-08-08T23:45:57.004Z,3.20
2017-08-08T23:48:24.542Z,2.63
2017-08-08T23:50:52.078Z,3.00
2017-08-08T23:53:19.641Z,3.20
2017-08-08T23:55:47.184Z,2.80
2017-08-08T23:58:15.486Z,2.83
